sensor_id;sensor_type;location;lat;lon;timestamp;P1;durP1;ratioP1;P2;durP2;ratioP2
27802;SDS011;15182;48.174;11.562;2023-02-22T00:01:25;5.50;;;5.00;;
27802;SDS011;15182;48.174;11.562;2023-02-22T00:04:02;6.80;;;4.97;;
27802;SDS011;15182;48.174;11.562;2023-02-22T00:06:35;5.13;;;4.80;;
27802;SDS011;15182;48.174;11.562;2023-02-22T00:09:07;5.03;;;4.53;;
27802;SDS011;15182;48.174;11.562;2023-02-22T00:11:43;5.37;;;5.03;;
27802;SDS011;15182;48.174;11.562;2023-02-22T00:14:15;4.83;;;4.53;;
27802;SDS011;15182;48.174;11.562;2023-02-22T00:16:47;5.20;;;4.80;;
27802;SDS011;15182;48.174;11.562;2023-02-22T00:19:22;5.30;;;5.00;;
27802;SDS011;15182;48.174;11.562;2023-02-22T00:21:55;5.27;;;4.97;;
27802;SDS011;15182;48.174;11.562;2023-02-22T00:24:26;5.33;;;4.93;;
27802;SDS011;15182;48.174;11.562;2023-02-22T00:27:00;6.00;;;5.60;;
27802;SDS011;15182;48.174;11.562;2023-02-22T00:29:32;5.47;;;5.17;;
27802;SDS011;15182;48.174;11.562;2023-02-22T00:32:05;6.40;;;4.80;;
27802;SDS011;15182;48.174;11.562;2023-02-22T00:34:40;5.63;;;5.17;;
27802;SDS011;15182;48.174;11.562;2023-02-22T00:37:12;5.13;;;4.83;;
27802;SDS011;15182;48.174;11.562;2023-02-22T00:39:45;7.90;;;5.00;;
27802;SDS011;15182;48.174;11.562;2023-02-22T00:42:17;5.27;;;4.93;;
27802;SDS011;15182;48.174;11.562;2023-02-22T00:44:48;6.70;;;5.03;;
27802;SDS011;15182;48.174;11.562;2023-02-22T00:47:19;5.90;;;5.40;;
27802;SDS011;15182;48.174;11.562;2023-02-22T00:49:53;5.60;;;5.10;;
27802;SDS011;15182;48.174;11.562;2023-02-22T00:52:25;5.60;;;5.13;;
27802;SDS011;15182;48.174;11.562;2023-02-22T00:54:56;8.30;;;5.23;;
27802;SDS011;15182;48.174;11.562;2023-02-22T00:57:28;5.37;;;5.07;;
27802;SDS011;15182;48.174;11.562;2023-02-22T01:00:00;4.80;;;4.53;;
27802;SDS011;15182;48.174;11.562;2023-02-22T01:02:38;4.80;;;4.50;;
27802;SDS011;15182;48.174;11.562;2023-02-22T01:05:14;4.97;;;4.67;;
27802;SDS011;15182;48.174;11.562;2023-02-22T01:07:48;5.50;;;5.00;;
27802;SDS011;15182;48.174;11.562;2023-02-22T01:10:21;4.80;;;4.40;;
27802;SDS011;15182;48.174;11.562;2023-02-22T01:12:56;5.10;;;4.83;;
27802;SDS011;15182;48.174;11.562;2023-02-22T01:15:33;4.97;;;4.67;;
27802;SDS011;15182;48.174;11.562;2023-02-22T01:18:07;5.60;;;4.97;;
27802;SDS011;15182;48.174;11.562;2023-02-22T01:20:43;4.80;;;4.50;;
27802;SDS011;15182;48.174;11.562;2023-02-22T01:23:15;5.20;;;4.93;;
27802;SDS011;15182;48.174;11.562;2023-02-22T01:25:49;5.53;;;5.13;;
27802;SDS011;15182;48.174;11.562;2023-02-22T01:28:20;4.70;;;4.40;;
27802;SDS011;15182;48.174;11.562;2023-02-22T01:30:51;5.20;;;4.80;;
27802;SDS011;15182;48.174;11.562;2023-02-22T01:33:23;5.00;;;4.60;;
27802;SDS011;15182;48.174;11.562;2023-02-22T01:35:56;4.60;;;4.40;;
27802;SDS011;15182;48.174;11.562;2023-02-22T01:38:28;4.70;;;4.30;;
27802;SDS011;15182;48.174;11.562;2023-02-22T01:40:59;4.73;;;4.40;;
27802;SDS011;15182;48.174;11.562;2023-02-22T01:43:33;5.00;;;4.60;;
27802;SDS011;15182;48.174;11.562;2023-02-22T01:46:04;4.37;;;4.13;;
27802;SDS011;15182;48.174;11.562;2023-02-22T01:48:49;4.67;;;4.33;;
27802;SDS011;15182;48.174;11.562;2023-02-22T01:51:26;4.57;;;4.27;;
27802;SDS011;15182;48.174;11.562;2023-02-22T01:54:04;5.27;;;4.87;;
27802;SDS011;15182;48.174;11.562;2023-02-22T01:56:46;4.30;;;4.10;;
27802;SDS011;15182;48.174;11.562;2023-02-22T01:59:20;4.63;;;4.30;;
27802;SDS011;15182;48.174;11.562;2023-02-22T02:01:53;5.07;;;4.67;;
27802;SDS011;15182;48.174;11.562;2023-02-22T02:04:25;4.73;;;4.43;;
27802;SDS011;15182;48.174;11.562;2023-02-22T02:06:58;4.30;;;4.20;;
27802;SDS011;15182;48.174;11.562;2023-02-22T02:09:36;4.73;;;4.33;;
27802;SDS011;15182;48.174;11.562;2023-02-22T02:12:14;4.60;;;4.30;;
27802;SDS011;15182;48.174;11.562;2023-02-22T02:14:52;5.27;;;4.70;;
27802;SDS011;15182;48.174;11.562;2023-02-22T02:17:48;5.40;;;5.00;;
27802;SDS011;15182;48.174;11.562;2023-02-22T02:20:23;4.90;;;4.30;;
27802;SDS011;15182;48.174;11.562;2023-02-22T02:23:03;5.40;;;5.10;;
27802;SDS011;15182;48.174;11.562;2023-02-22T02:26:01;5.00;;;4.60;;
27802;SDS011;15182;48.174;11.562;2023-02-22T02:32:23;3.90;;;3.80;;
27802;SDS011;15182;48.174;11.562;2023-02-22T02:35:03;4.93;;;4.50;;
27802;SDS011;15182;48.174;11.562;2023-02-22T02:37:43;5.00;;;4.20;;
27802;SDS011;15182;48.174;11.562;2023-02-22T02:40:27;4.60;;;4.30;;
27802;SDS011;15182;48.174;11.562;2023-02-22T02:43:04;4.27;;;4.07;;
27802;SDS011;15182;48.174;11.562;2023-02-22T02:45:44;3.87;;;3.77;;
27802;SDS011;15182;48.174;11.562;2023-02-22T02:48:22;4.00;;;3.80;;
27802;SDS011;15182;48.174;11.562;2023-02-22T02:51:00;4.67;;;4.50;;
27802;SDS011;15182;48.174;11.562;2023-02-22T02:53:35;3.63;;;3.53;;
27802;SDS011;15182;48.174;11.562;2023-02-22T02:56:09;3.67;;;3.57;;
27802;SDS011;15182;48.174;11.562;2023-02-22T02:58:44;4.13;;;3.80;;
27802;SDS011;15182;48.174;11.562;2023-02-22T03:01:20;3.83;;;3.73;;
27802;SDS011;15182;48.174;11.562;2023-02-22T03:04:26;3.50;;;3.30;;
27802;SDS011;15182;48.174;11.562;2023-02-22T03:07:09;3.80;;;3.70;;
27802;SDS011;15182;48.174;11.562;2023-02-22T03:10:05;3.40;;;3.30;;
27802;SDS011;15182;48.174;11.562;2023-02-22T03:12:47;3.93;;;3.73;;
27802;SDS011;15182;48.174;11.562;2023-02-22T03:15:34;3.23;;;3.13;;
27802;SDS011;15182;48.174;11.562;2023-02-22T03:18:17;3.57;;;3.37;;
27802;SDS011;15182;48.174;11.562;2023-02-22T03:20:58;3.97;;;3.67;;
27802;SDS011;15182;48.174;11.562;2023-02-22T03:23:36;3.17;;;3.07;;
27802;SDS011;15182;48.174;11.562;2023-02-22T03:26:13;3.60;;;3.50;;
27802;SDS011;15182;48.174;11.562;2023-02-22T03:28:54;4.10;;;4.00;;
27802;SDS011;15182;48.174;11.562;2023-02-22T03:31:30;4.33;;;4.03;;
27802;SDS011;15182;48.174;11.562;2023-02-22T03:34:07;5.93;;;5.33;;
27802;SDS011;15182;48.174;11.562;2023-02-22T03:36:46;6.50;;;4.90;;
27802;SDS011;15182;48.174;11.562;2023-02-22T03:39:23;8.80;;;5.80;;
27802;SDS011;15182;48.174;11.562;2023-02-22T03:41:59;5.37;;;4.97;;
27802;SDS011;15182;48.174;11.562;2023-02-22T03:44:38;4.27;;;4.03;;
27802;SDS011;15182;48.174;11.562;2023-02-22T03:47:13;4.30;;;4.00;;
27802;SDS011;15182;48.174;11.562;2023-02-22T03:49:56;3.30;;;3.20;;
27802;SDS011;15182;48.174;11.562;2023-02-22T03:52:35;3.60;;;3.50;;
27802;SDS011;15182;48.174;11.562;2023-02-22T03:55:12;3.83;;;3.63;;
27802;SDS011;15182;48.174;11.562;2023-02-22T03:57:45;3.50;;;3.40;;
27802;SDS011;15182;48.174;11.562;2023-02-22T04:00:21;3.87;;;3.77;;
27802;SDS011;15182;48.174;11.562;2023-02-22T04:02:53;3.33;;;3.23;;
27802;SDS011;15182;48.174;11.562;2023-02-22T04:05:24;3.53;;;3.27;;
27802;SDS011;15182;48.174;11.562;2023-02-22T04:07:58;3.60;;;3.50;;
27802;SDS011;15182;48.174;11.562;2023-02-22T04:10:31;3.50;;;3.40;;
27802;SDS011;15182;48.174;11.562;2023-02-22T04:13:05;3.97;;;3.77;;
27802;SDS011;15182;48.174;11.562;2023-02-22T04:15:39;3.50;;;3.40;;
27802;SDS011;15182;48.174;11.562;2023-02-22T04:18:11;3.87;;;3.70;;
27802;SDS011;15182;48.174;11.562;2023-02-22T04:20:45;3.50;;;3.40;;
27802;SDS011;15182;48.174;11.562;2023-02-22T04:23:28;3.63;;;3.53;;
27802;SDS011;15182;48.174;11.562;2023-02-22T04:26:03;3.80;;;3.60;;
27802;SDS011;15182;48.174;11.562;2023-02-22T04:28:34;3.50;;;3.20;;
27802;SDS011;15182;48.174;11.562;2023-02-22T04:31:17;3.63;;;3.50;;
27802;SDS011;15182;48.174;11.562;2023-02-22T04:33:50;3.47;;;3.37;;
27802;SDS011;15182;48.174;11.562;2023-02-22T04:36:26;3.50;;;3.40;;
27802;SDS011;15182;48.174;11.562;2023-02-22T04:39:00;4.13;;;3.90;;
27802;SDS011;15182;48.174;11.562;2023-02-22T04:41:33;3.90;;;3.80;;
27802;SDS011;15182;48.174;11.562;2023-02-22T04:44:07;3.70;;;3.60;;
27802;SDS011;15182;48.174;11.562;2023-02-22T04:46:39;3.70;;;3.60;;
27802;SDS011;15182;48.174;11.562;2023-02-22T04:49:15;3.43;;;3.33;;
27802;SDS011;15182;48.174;11.562;2023-02-22T04:51:47;3.60;;;3.53;;
27802;SDS011;15182;48.174;11.562;2023-02-22T04:54:24;4.10;;;3.90;;
27802;SDS011;15182;48.174;11.562;2023-02-22T04:56:55;3.70;;;3.60;;
27802;SDS011;15182;48.174;11.562;2023-02-22T04:59:27;3.53;;;3.43;;
27802;SDS011;15182;48.174;11.562;2023-02-22T05:02:00;4.00;;;3.90;;
27802;SDS011;15182;48.174;11.562;2023-02-22T05:04:31;4.07;;;3.37;;
27802;SDS011;15182;48.174;11.562;2023-02-22T05:07:07;4.23;;;3.97;;
27802;SDS011;15182;48.174;11.562;2023-02-22T05:09:40;3.83;;;3.63;;
27802;SDS011;15182;48.174;11.562;2023-02-22T05:12:13;3.20;;;3.20;;
27802;SDS011;15182;48.174;11.562;2023-02-22T05:14:45;3.40;;;3.30;;
27802;SDS011;15182;48.174;11.562;2023-02-22T05:17:18;4.63;;;4.20;;
27802;SDS011;15182;48.174;11.562;2023-02-22T05:19:49;3.53;;;3.43;;
27802;SDS011;15182;48.174;11.562;2023-02-22T05:22:20;3.87;;;3.77;;
27802;SDS011;15182;48.174;11.562;2023-02-22T05:24:53;4.13;;;3.80;;
27802;SDS011;15182;48.174;11.562;2023-02-22T05:27:24;3.93;;;3.80;;
27802;SDS011;15182;48.174;11.562;2023-02-22T05:29:55;3.97;;;3.70;;
27802;SDS011;15182;48.174;11.562;2023-02-22T05:32:26;6.10;;;4.27;;
27802;SDS011;15182;48.174;11.562;2023-02-22T05:34:59;3.97;;;3.77;;
27802;SDS011;15182;48.174;11.562;2023-02-22T05:37:31;4.00;;;3.80;;
27802;SDS011;15182;48.174;11.562;2023-02-22T05:40:04;4.07;;;3.90;;
27802;SDS011;15182;48.174;11.562;2023-02-22T05:42:39;3.90;;;3.80;;
27802;SDS011;15182;48.174;11.562;2023-02-22T05:45:13;4.70;;;4.40;;
27802;SDS011;15182;48.174;11.562;2023-02-22T05:47:46;3.87;;;3.77;;
27802;SDS011;15182;48.174;11.562;2023-02-22T05:50:21;4.30;;;4.10;;
27802;SDS011;15182;48.174;11.562;2023-02-22T05:52:52;4.03;;;3.83;;
27802;SDS011;15182;48.174;11.562;2023-02-22T05:55:25;4.53;;;3.93;;
27802;SDS011;15182;48.174;11.562;2023-02-22T05:57:56;4.83;;;4.00;;
27802;SDS011;15182;48.174;11.562;2023-02-22T06:00:30;4.10;;;3.90;;
27802;SDS011;15182;48.174;11.562;2023-02-22T06:03:02;3.73;;;3.63;;
27802;SDS011;15182;48.174;11.562;2023-02-22T06:05:39;4.73;;;4.47;;
27802;SDS011;15182;48.174;11.562;2023-02-22T06:08:12;4.00;;;3.80;;
27802;SDS011;15182;48.174;11.562;2023-02-22T06:10:45;4.47;;;4.13;;
27802;SDS011;15182;48.174;11.562;2023-02-22T06:13:18;4.57;;;4.17;;
27802;SDS011;15182;48.174;11.562;2023-02-22T06:15:49;5.13;;;4.13;;
27802;SDS011;15182;48.174;11.562;2023-02-22T06:18:23;4.63;;;4.27;;
27802;SDS011;15182;48.174;11.562;2023-02-22T06:20:56;6.50;;;4.37;;
27802;SDS011;15182;48.174;11.562;2023-02-22T06:23:29;4.70;;;4.40;;
27802;SDS011;15182;48.174;11.562;2023-02-22T06:26:01;7.37;;;4.30;;
27802;SDS011;15182;48.174;11.562;2023-02-22T06:28:32;5.00;;;4.60;;
27802;SDS011;15182;48.174;11.562;2023-02-22T06:31:04;5.00;;;4.40;;
27802;SDS011;15182;48.174;11.562;2023-02-22T06:33:35;4.47;;;4.27;;
27802;SDS011;15182;48.174;11.562;2023-02-22T06:36:07;4.50;;;4.40;;
27802;SDS011;15182;48.174;11.562;2023-02-22T06:38:38;4.40;;;4.20;;
27802;SDS011;15182;48.174;11.562;2023-02-22T06:41:11;5.30;;;4.73;;
27802;SDS011;15182;48.174;11.562;2023-02-22T06:43:43;5.20;;;4.70;;
27802;SDS011;15182;48.174;11.562;2023-02-22T06:46:14;4.60;;;4.20;;
27802;SDS011;15182;48.174;11.562;2023-02-22T06:48:46;5.23;;;4.70;;
27802;SDS011;15182;48.174;11.562;2023-02-22T06:51:19;5.00;;;4.70;;
27802;SDS011;15182;48.174;11.562;2023-02-22T06:53:51;5.13;;;4.83;;
27802;SDS011;15182;48.174;11.562;2023-02-22T06:56:23;5.03;;;4.83;;
27802;SDS011;15182;48.174;11.562;2023-02-22T06:58:54;5.13;;;4.73;;
27802;SDS011;15182;48.174;11.562;2023-02-22T07:01:28;4.57;;;4.37;;
27802;SDS011;15182;48.174;11.562;2023-02-22T07:04:00;5.77;;;5.27;;
27802;SDS011;15182;48.174;11.562;2023-02-22T07:06:33;5.30;;;5.00;;
27802;SDS011;15182;48.174;11.562;2023-02-22T07:09:04;4.90;;;4.60;;
27802;SDS011;15182;48.174;11.562;2023-02-22T07:11:38;6.73;;;5.93;;
27802;SDS011;15182;48.174;11.562;2023-02-22T07:14:09;6.87;;;6.27;;
27802;SDS011;15182;48.174;11.562;2023-02-22T07:16:40;5.97;;;5.53;;
27802;SDS011;15182;48.174;11.562;2023-02-22T07:19:12;5.87;;;5.27;;
27802;SDS011;15182;48.174;11.562;2023-02-22T07:21:43;7.27;;;5.23;;
27802;SDS011;15182;48.174;11.562;2023-02-22T07:24:15;6.30;;;4.77;;
27802;SDS011;15182;48.174;11.562;2023-02-22T07:26:48;7.27;;;5.33;;
27802;SDS011;15182;48.174;11.562;2023-02-22T07:29:19;6.23;;;5.70;;
27802;SDS011;15182;48.174;11.562;2023-02-22T07:31:51;7.40;;;6.07;;
27802;SDS011;15182;48.174;11.562;2023-02-22T07:34:24;7.03;;;5.40;;
27802;SDS011;15182;48.174;11.562;2023-02-22T07:36:55;8.70;;;5.10;;
27802;SDS011;15182;48.174;11.562;2023-02-22T07:39:28;5.37;;;4.97;;
27802;SDS011;15182;48.174;11.562;2023-02-22T07:42:01;5.83;;;4.70;;
27802;SDS011;15182;48.174;11.562;2023-02-22T07:44:38;5.03;;;4.80;;
27802;SDS011;15182;48.174;11.562;2023-02-22T07:47:09;5.07;;;4.43;;
27802;SDS011;15182;48.174;11.562;2023-02-22T07:49:40;5.67;;;4.20;;
27802;SDS011;15182;48.174;11.562;2023-02-22T07:52:12;5.07;;;4.73;;
27802;SDS011;15182;48.174;11.562;2023-02-22T07:54:44;6.17;;;4.77;;
27802;SDS011;15182;48.174;11.562;2023-02-22T07:57:17;5.43;;;4.90;;
27802;SDS011;15182;48.174;11.562;2023-02-22T07:59:48;5.43;;;5.03;;
27802;SDS011;15182;48.174;11.562;2023-02-22T08:02:20;4.70;;;4.50;;
27802;SDS011;15182;48.174;11.562;2023-02-22T08:04:54;4.60;;;4.20;;
27802;SDS011;15182;48.174;11.562;2023-02-22T08:07:25;4.63;;;4.33;;
27802;SDS011;15182;48.174;11.562;2023-02-22T08:09:56;5.90;;;4.10;;
27802;SDS011;15182;48.174;11.562;2023-02-22T08:12:32;4.80;;;4.33;;
27802;SDS011;15182;48.174;11.562;2023-02-22T08:15:06;4.57;;;4.37;;
27802;SDS011;15182;48.174;11.562;2023-02-22T08:17:45;4.10;;;3.70;;
27802;SDS011;15182;48.174;11.562;2023-02-22T08:20:16;3.83;;;3.53;;
27802;SDS011;15182;48.174;11.562;2023-02-22T08:22:49;3.93;;;3.63;;
27802;SDS011;15182;48.174;11.562;2023-02-22T08:25:23;5.47;;;4.17;;
27802;SDS011;15182;48.174;11.562;2023-02-22T08:27:58;8.13;;;3.60;;
27802;SDS011;15182;48.174;11.562;2023-02-22T08:30:34;5.03;;;3.90;;
27802;SDS011;15182;48.174;11.562;2023-02-22T08:33:07;5.23;;;4.03;;
27802;SDS011;15182;48.174;11.562;2023-02-22T08:35:43;5.13;;;4.10;;
27802;SDS011;15182;48.174;11.562;2023-02-22T08:38:17;5.43;;;4.13;;
27802;SDS011;15182;48.174;11.562;2023-02-22T08:40:50;3.97;;;3.70;;
27802;SDS011;15182;48.174;11.562;2023-02-22T08:43:23;3.50;;;3.30;;
27802;SDS011;15182;48.174;11.562;2023-02-22T08:45:55;3.60;;;3.50;;
27802;SDS011;15182;48.174;11.562;2023-02-22T08:48:26;3.93;;;3.30;;
27802;SDS011;15182;48.174;11.562;2023-02-22T08:50:57;5.03;;;3.50;;
27802;SDS011;15182;48.174;11.562;2023-02-22T08:53:29;8.60;;;3.87;;
27802;SDS011;15182;48.174;11.562;2023-02-22T08:56:00;4.57;;;3.60;;
27802;SDS011;15182;48.174;11.562;2023-02-22T08:58:33;3.73;;;3.50;;
27802;SDS011;15182;48.174;11.562;2023-02-22T09:01:04;7.20;;;3.30;;
27802;SDS011;15182;48.174;11.562;2023-02-22T09:03:38;3.50;;;3.17;;
27802;SDS011;15182;48.174;11.562;2023-02-22T09:06:09;6.13;;;3.63;;
27802;SDS011;15182;48.174;11.562;2023-02-22T09:08:42;3.33;;;3.23;;
27802;SDS011;15182;48.174;11.562;2023-02-22T09:11:13;3.47;;;3.10;;
27802;SDS011;15182;48.174;11.562;2023-02-22T09:13:46;3.30;;;3.10;;
27802;SDS011;15182;48.174;11.562;2023-02-22T09:16:17;3.20;;;3.10;;
27802;SDS011;15182;48.174;11.562;2023-02-22T09:18:50;3.30;;;3.10;;
27802;SDS011;15182;48.174;11.562;2023-02-22T09:21:21;11.30;;;3.00;;
27802;SDS011;15182;48.174;11.562;2023-02-22T09:23:53;9.57;;;3.30;;
27802;SDS011;15182;48.174;11.562;2023-02-22T09:26:33;2.83;;;2.73;;
27802;SDS011;15182;48.174;11.562;2023-02-22T09:29:08;5.93;;;3.07;;
27802;SDS011;15182;48.174;11.562;2023-02-22T09:31:42;7.27;;;3.37;;
27802;SDS011;15182;48.174;11.562;2023-02-22T09:34:13;3.17;;;2.97;;
27802;SDS011;15182;48.174;11.562;2023-02-22T09:36:47;3.30;;;3.20;;
27802;SDS011;15182;48.174;11.562;2023-02-22T09:39:19;3.30;;;3.10;;
27802;SDS011;15182;48.174;11.562;2023-02-22T09:41:53;4.90;;;2.80;;
27802;SDS011;15182;48.174;11.562;2023-02-22T09:44:35;2.70;;;2.60;;
27802;SDS011;15182;48.174;11.562;2023-02-22T09:47:14;3.20;;;2.93;;
27802;SDS011;15182;48.174;11.562;2023-02-22T09:49:57;3.00;;;2.80;;
27802;SDS011;15182;48.174;11.562;2023-02-22T09:52:42;2.50;;;2.40;;
27802;SDS011;15182;48.174;11.562;2023-02-22T09:55:25;2.47;;;2.40;;
27802;SDS011;15182;48.174;11.562;2023-02-22T09:58:01;3.57;;;2.50;;
27802;SDS011;15182;48.174;11.562;2023-02-22T10:00:37;2.57;;;2.47;;
27802;SDS011;15182;48.174;11.562;2023-02-22T10:03:18;3.40;;;2.67;;
27802;SDS011;15182;48.174;11.562;2023-02-22T10:05:55;2.17;;;2.17;;
27802;SDS011;15182;48.174;11.562;2023-02-22T10:08:33;2.57;;;2.57;;
27802;SDS011;15182;48.174;11.562;2023-02-22T10:11:08;2.17;;;2.17;;
27802;SDS011;15182;48.174;11.562;2023-02-22T10:13:50;2.97;;;2.10;;
27802;SDS011;15182;48.174;11.562;2023-02-22T10:16:35;2.27;;;2.27;;
27802;SDS011;15182;48.174;11.562;2023-02-22T10:19:15;2.50;;;2.30;;
27802;SDS011;15182;48.174;11.562;2023-02-22T10:21:58;2.73;;;2.10;;
27802;SDS011;15182;48.174;11.562;2023-02-22T10:24:45;4.23;;;2.43;;
27802;SDS011;15182;48.174;11.562;2023-02-22T10:27:26;1.97;;;1.90;;
27802;SDS011;15182;48.174;11.562;2023-02-22T10:30:04;2.33;;;2.23;;
27802;SDS011;15182;48.174;11.562;2023-02-22T10:32:45;2.40;;;2.13;;
27802;SDS011;15182;48.174;11.562;2023-02-22T10:35:21;2.60;;;2.40;;
27802;SDS011;15182;48.174;11.562;2023-02-22T10:37:59;2.00;;;2.00;;
27802;SDS011;15182;48.174;11.562;2023-02-22T10:40:42;2.00;;;2.00;;
27802;SDS011;15182;48.174;11.562;2023-02-22T10:43:15;1.73;;;1.73;;
27802;SDS011;15182;48.174;11.562;2023-02-22T10:45:51;2.93;;;2.03;;
27802;SDS011;15182;48.174;11.562;2023-02-22T10:48:27;1.90;;;1.90;;
27802;SDS011;15182;48.174;11.562;2023-02-22T10:51:04;2.87;;;1.93;;
27802;SDS011;15182;48.174;11.562;2023-02-22T10:53:38;3.87;;;2.10;;
27802;SDS011;15182;48.174;11.562;2023-02-22T10:56:13;2.10;;;2.10;;
27802;SDS011;15182;48.174;11.562;2023-02-22T10:58:50;1.97;;;1.87;;
27802;SDS011;15182;48.174;11.562;2023-02-22T11:01:26;1.97;;;1.90;;
27802;SDS011;15182;48.174;11.562;2023-02-22T11:04:06;2.60;;;2.07;;
27802;SDS011;15182;48.174;11.562;2023-02-22T11:06:44;2.43;;;1.90;;
27802;SDS011;15182;48.174;11.562;2023-02-22T11:09:41;1.80;;;1.80;;
27802;SDS011;15182;48.174;11.562;2023-02-22T11:12:16;2.30;;;2.20;;
27802;SDS011;15182;48.174;11.562;2023-02-22T11:14:54;2.00;;;1.90;;
27802;SDS011;15182;48.174;11.562;2023-02-22T11:17:30;2.00;;;1.90;;
27802;SDS011;15182;48.174;11.562;2023-02-22T11:20:03;2.17;;;2.10;;
27802;SDS011;15182;48.174;11.562;2023-02-22T11:22:52;1.60;;;1.60;;
27802;SDS011;15182;48.174;11.562;2023-02-22T11:25:26;3.93;;;1.87;;
27802;SDS011;15182;48.174;11.562;2023-02-22T11:28:06;1.97;;;1.93;;
27802;SDS011;15182;48.174;11.562;2023-02-22T11:30:42;1.70;;;1.70;;
27802;SDS011;15182;48.174;11.562;2023-02-22T11:33:18;2.80;;;1.50;;
27802;SDS011;15182;48.174;11.562;2023-02-22T11:35:56;1.83;;;1.80;;
27802;SDS011;15182;48.174;11.562;2023-02-22T11:38:30;1.83;;;1.63;;
27802;SDS011;15182;48.174;11.562;2023-02-22T11:41:06;1.63;;;1.63;;
27802;SDS011;15182;48.174;11.562;2023-02-22T11:43:48;2.03;;;1.92;;
27802;SDS011;15182;48.174;11.562;2023-02-22T11:46:21;1.75;;;1.70;;
27802;SDS011;15182;48.174;11.562;2023-02-22T11:48:59;2.50;;;1.77;;
27802;SDS011;15182;48.174;11.562;2023-02-22T11:51:40;6.33;;;1.70;;
27802;SDS011;15182;48.174;11.562;2023-02-22T11:54:23;1.48;;;1.48;;
27802;SDS011;15182;48.174;11.562;2023-02-22T11:57:20;1.90;;;1.80;;
27802;SDS011;15182;48.174;11.562;2023-02-22T12:00:17;2.25;;;1.92;;
27802;SDS011;15182;48.174;11.562;2023-02-22T12:02:58;2.03;;;1.95;;
27802;SDS011;15182;48.174;11.562;2023-02-22T12:06:09;2.80;;;1.67;;
27802;SDS011;15182;48.174;11.562;2023-02-22T12:08:59;1.58;;;1.58;;
27802;SDS011;15182;48.174;11.562;2023-02-22T12:11:42;1.58;;;1.58;;
27802;SDS011;15182;48.174;11.562;2023-02-22T12:14:25;5.10;;;1.85;;
27802;SDS011;15182;48.174;11.562;2023-02-22T12:17:17;1.75;;;1.75;;
27802;SDS011;15182;48.174;11.562;2023-02-22T12:19:56;1.67;;;1.50;;
27802;SDS011;15182;48.174;11.562;2023-02-22T12:22:51;1.63;;;1.52;;
27802;SDS011;15182;48.174;11.562;2023-02-22T12:25:27;2.10;;;1.50;;
27802;SDS011;15182;48.174;11.562;2023-02-22T12:28:02;1.65;;;1.52;;
27802;SDS011;15182;48.174;11.562;2023-02-22T12:30:43;1.55;;;1.55;;
27802;SDS011;15182;48.174;11.562;2023-02-22T12:33:23;1.95;;;1.85;;
27802;SDS011;15182;48.174;11.562;2023-02-22T12:35:59;1.58;;;1.58;;
27802;SDS011;15182;48.174;11.562;2023-02-22T12:38:33;1.70;;;1.40;;
27802;SDS011;15182;48.174;11.562;2023-02-22T12:41:12;5.13;;;1.42;;
27802;SDS011;15182;48.174;11.562;2023-02-22T12:43:52;1.55;;;1.55;;
27802;SDS011;15182;48.174;11.562;2023-02-22T12:46:29;1.80;;;1.80;;
27802;SDS011;15182;48.174;11.562;2023-02-22T12:49:09;1.40;;;1.40;;
27802;SDS011;15182;48.174;11.562;2023-02-22T12:51:51;1.20;;;1.20;;
27802;SDS011;15182;48.174;11.562;2023-02-22T12:54:36;3.83;;;1.23;;
27802;SDS011;15182;48.174;11.562;2023-02-22T12:57:15;1.60;;;1.50;;
27802;SDS011;15182;48.174;11.562;2023-02-22T12:59:55;1.83;;;1.38;;
27802;SDS011;15182;48.174;11.562;2023-02-22T13:02:33;2.50;;;1.40;;
27802;SDS011;15182;48.174;11.562;2023-02-22T13:05:12;1.40;;;1.40;;
27802;SDS011;15182;48.174;11.562;2023-02-22T13:07:47;1.90;;;1.90;;
27802;SDS011;15182;48.174;11.562;2023-02-22T13:10:34;1.45;;;1.45;;
27802;SDS011;15182;48.174;11.562;2023-02-22T13:13:26;1.30;;;1.30;;
27802;SDS011;15182;48.174;11.562;2023-02-22T13:16:04;1.40;;;1.40;;
27802;SDS011;15182;48.174;11.562;2023-02-22T13:18:44;1.50;;;1.50;;
27802;SDS011;15182;48.174;11.562;2023-02-22T13:21:22;1.35;;;1.35;;
27802;SDS011;15182;48.174;11.562;2023-02-22T13:24:03;2.10;;;1.30;;
27802;SDS011;15182;48.174;11.562;2023-02-22T13:26:48;1.45;;;1.45;;
27802;SDS011;15182;48.174;11.562;2023-02-22T13:29:26;1.73;;;1.58;;
27802;SDS011;15182;48.174;11.562;2023-02-22T13:32:07;1.65;;;1.55;;
27802;SDS011;15182;48.174;11.562;2023-02-22T13:34:50;1.35;;;1.35;;
27802;SDS011;15182;48.174;11.562;2023-02-22T13:37:40;2.53;;;1.37;;
27802;SDS011;15182;48.174;11.562;2023-02-22T13:43:33;1.45;;;1.45;;
27802;SDS011;15182;48.174;11.562;2023-02-22T13:46:35;1.45;;;1.45;;
27802;SDS011;15182;48.174;11.562;2023-02-22T13:52:44;1.27;;;1.27;;
27802;SDS011;15182;48.174;11.562;2023-02-22T13:55:20;1.50;;;1.40;;
27802;SDS011;15182;48.174;11.562;2023-02-22T13:58:01;1.70;;;1.58;;
27802;SDS011;15182;48.174;11.562;2023-02-22T14:00:39;1.30;;;1.30;;
27802;SDS011;15182;48.174;11.562;2023-02-22T14:09:07;1.70;;;1.60;;
27802;SDS011;15182;48.174;11.562;2023-02-22T14:11:44;2.25;;;1.40;;
27802;SDS011;15182;48.174;11.562;2023-02-22T14:14:21;1.40;;;1.40;;
27802;SDS011;15182;48.174;11.562;2023-02-22T14:20:16;2.00;;;1.60;;
27802;SDS011;15182;48.174;11.562;2023-02-22T14:26:08;1.60;;;1.60;;
27802;SDS011;15182;48.174;11.562;2023-02-22T14:28:41;1.45;;;1.45;;
27802;SDS011;15182;48.174;11.562;2023-02-22T14:31:20;1.63;;;1.55;;
27802;SDS011;15182;48.174;11.562;2023-02-22T14:33:57;1.80;;;1.70;;
27802;SDS011;15182;48.174;11.562;2023-02-22T14:36:32;1.37;;;1.37;;
27802;SDS011;15182;48.174;11.562;2023-02-22T14:39:09;1.67;;;1.67;;
27802;SDS011;15182;48.174;11.562;2023-02-22T14:41:47;1.10;;;1.10;;
27802;SDS011;15182;48.174;11.562;2023-02-22T14:44:23;1.50;;;1.50;;
27802;SDS011;15182;48.174;11.562;2023-02-22T14:47:03;1.93;;;1.63;;
27802;SDS011;15182;48.174;11.562;2023-02-22T14:49:44;1.60;;;1.50;;
27802;SDS011;15182;48.174;11.562;2023-02-22T14:52:23;1.30;;;1.30;;
27802;SDS011;15182;48.174;11.562;2023-02-22T14:55:01;1.20;;;1.20;;
27802;SDS011;15182;48.174;11.562;2023-02-22T14:57:51;1.30;;;1.30;;
27802;SDS011;15182;48.174;11.562;2023-02-22T15:00:36;1.20;;;1.20;;
27802;SDS011;15182;48.174;11.562;2023-02-22T15:03:16;2.10;;;1.97;;
27802;SDS011;15182;48.174;11.562;2023-02-22T15:06:02;2.40;;;2.40;;
27802;SDS011;15182;48.174;11.562;2023-02-22T15:08:40;7.17;;;2.77;;
27802;SDS011;15182;48.174;11.562;2023-02-22T15:11:21;2.77;;;2.57;;
27802;SDS011;15182;48.174;11.562;2023-02-22T15:13:57;2.37;;;2.27;;
27802;SDS011;15182;48.174;11.562;2023-02-22T15:16:39;2.80;;;2.70;;
27802;SDS011;15182;48.174;11.562;2023-02-22T15:19:22;3.93;;;3.27;;
27802;SDS011;15182;48.174;11.562;2023-02-22T15:21:57;2.73;;;2.63;;
27802;SDS011;15182;48.174;11.562;2023-02-22T15:24:36;2.75;;;2.40;;
27802;SDS011;15182;48.174;11.562;2023-02-22T15:27:12;3.73;;;2.43;;
27802;SDS011;15182;48.174;11.562;2023-02-22T15:29:46;3.70;;;2.73;;
27802;SDS011;15182;48.174;11.562;2023-02-22T15:32:27;2.40;;;2.40;;
27802;SDS011;15182;48.174;11.562;2023-02-22T15:35:12;7.40;;;2.90;;
27802;SDS011;15182;48.174;11.562;2023-02-22T15:37:44;4.00;;;2.70;;
27802;SDS011;15182;48.174;11.562;2023-02-22T15:40:28;3.57;;;2.47;;
27802;SDS011;15182;48.174;11.562;2023-02-22T15:43:02;3.97;;;2.60;;
27802;SDS011;15182;48.174;11.562;2023-02-22T15:45:42;2.47;;;2.37;;
27802;SDS011;15182;48.174;11.562;2023-02-22T15:48:16;2.50;;;2.30;;
27802;SDS011;15182;48.174;11.562;2023-02-22T15:51:00;2.80;;;2.70;;